Temp: 9.2°C   Baro: 994.5mb
  Wind: 4.0mph   Dir: SW (221°)
  Rain: 0.0mm (0.0mm/hr)
  Solar: 0W/m2  Hum: 85%
 
Bath Spa Weather Station Historical Data
Daily Summary for September 22, 2020 Units:  English    Metric   Both
Daily Weekly Monthly Yearly Custom
  High: Low: Average:
Temperature: 68.9 °F 52.2 °F 59.4 °F
Dew Point: 60.8 °F 50.2 °F 55.9 °F
Humidity: 92% 68% 86%
Wind Speed: 8.6mph 0mph 1.8mph
Wind Gust: 17mph - -
Wind- - West
Pressure: 29.97 in 29.64 in -
Precipitation: 0.01 in    
Historical Graphs
 
 
Tabular Data for September 22, 2020
Time Temperature Dew Point Pressure Wind Wind Speed Wind Gust Humidity Rainfall Rate (Hourly) solar
00:04 58.6 °F 55.6 °F 29.97 in Calm     87% 0.00 in 0 W/m2
00:09 58.5 °F 55.5 °F 29.97 in Calm     87% 0.00 in 0 W/m2
00:14 58.3 °F 55.5 °F 29.96 in Calm     87.6% 0.00 in 0 W/m2
00:19 58.2 °F 55.4 °F 29.96 in Calm     87.8% 0.00 in 0 W/m2
00:24 58 °F 55.3 °F 29.96 in Calm     88% 0.00 in 0 W/m2
00:29 57.8 °F 55.1 °F 29.96 in Calm     88% 0.00 in 0 W/m2
00:34 57.7 °F 55 °F 29.96 in Calm     88% 0.00 in 0 W/m2
00:39 57.7 °F 55 °F 29.96 in Calm     88% 0.00 in 0 W/m2
00:44 57.7 °F 55 °F 29.96 in Calm     88% 0.00 in 0 W/m2
00:49 57.7 °F 55 °F 29.96 in Calm     88% 0.00 in 0 W/m2
00:54 57.6 °F 54.9 °F 29.96 in Calm     88% 0.00 in 0 W/m2
00:59 57.4 °F 54.7 °F 29.96 in Calm     88% 0.00 in 0 W/m2
01:04 57 °F 54.3 °F 29.95 in Calm     88% 0.00 in 0 W/m2
01:09 56.9 °F 54.2 °F 29.95 in Calm     88% 0.00 in 0 W/m2
01:14 56.8 °F 54.1 °F 29.95 in Calm     88% 0.00 in 0 W/m2
01:19 56.8 °F 54.1 °F 29.95 in Calm     88% 0.00 in 0 W/m2
01:24 56.6 °F 53.9 °F 29.95 in Calm     88% 0.00 in 0 W/m2
01:29 56.4 °F 53.7 °F 29.95 in Calm     88% 0.00 in 0 W/m2
01:39 56 °F 53.3 °F 29.94 in Calm     88% 0.00 in 0 W/m2
01:44 55.8 °F 53.1 °F 29.94 in Calm     88% 0.00 in 0 W/m2
01:49 55.8 °F 53.1 °F 29.94 in Calm     88% 0.00 in 0 W/m2
01:54 55.8 °F 53.1 °F 29.94 in Calm     88% 0.00 in 0 W/m2
01:59 55.8 °F 53.1 °F 29.94 in Calm     88% 0.00 in 0 W/m2
02:04 55.8 °F 53.1 °F 29.94 in Calm     88% 0.00 in 0 W/m2
02:09 55.8 °F 53.1 °F 29.94 in Calm     88% 0.00 in 0 W/m2
02:14 55.8 °F 53.1 °F 29.93 in Calm     88% 0.00 in 0 W/m2
02:19 55.6 °F 52.9 °F 29.93 in Calm     88% 0.00 in 0 W/m2
02:24 55.5 °F 52.9 °F 29.93 in Calm     88% 0.00 in 0 W/m2
02:29 55.3 °F 52.8 °F 29.93 in Calm     88% 0.00 in 0 W/m2
02:34 55.2 °F 52.7 °F 29.93 in Calm     88% 0.00 in 0 W/m2
02:39 55 °F 52.5 °F 29.93 in Calm     88% 0.00 in 0 W/m2
02:44 55 °F 52.5 °F 29.93 in Calm     88% 0.00 in 0 W/m2
02:49 55 °F 52.5 °F 29.92 in Calm     88% 0.00 in 0 W/m2
02:54 54.9 °F 52.3 °F 29.92 in Calm     88% 0.00 in 0 W/m2
02:59 54.9 °F 52.3 °F 29.92 in Calm     88% 0.00 in 0 W/m2
03:04 54.9 °F 52.3 °F 29.92 in Calm     88% 0.00 in 0 W/m2
03:09 54.9 °F 52.3 °F 29.92 in Calm     88% 0.00 in 0 W/m2
03:14 54.9 °F 52.3 °F 29.92 in Calm     88% 0.00 in 0 W/m2
03:19 54.8 °F 52.2 °F 29.92 in Calm     88% 0.00 in 0 W/m2
03:24 54.7 °F 52.2 °F 29.91 in Calm     88% 0.00 in 0 W/m2
03:29 54.6 °F 52.1 °F 29.91 in Calm     88% 0.00 in 0 W/m2
03:34 54.4 °F 51.9 °F 29.91 in Calm     88% 0.00 in 0 W/m2
03:39 54.3 °F 51.8 °F 29.91 in Calm     88% 0.00 in 0 W/m2
03:44 54.1 °F 51.6 °F 29.90 in Calm     88% 0.00 in 0 W/m2
03:49 54.1 °F 51.5 °F 29.90 in Calm     88% 0.00 in 0 W/m2
03:54 54 °F 51.6 °F 29.90 in Calm     88.6% 0.00 in 0 W/m2
03:59 54 °F 51.6 °F 29.90 in Calm     89% 0.00 in 0 W/m2
04:04 54 °F 51.7 °F 29.90 in Calm     89% 0.00 in 0 W/m2
04:09 54 °F 51.6 °F 29.89 in Calm     89% 0.00 in 0 W/m2
04:14 54 °F 51.5 °F 29.89 in Calm     88.6% 0.00 in 0 W/m2
04:19 54 °F 51.4 °F 29.89 in Calm     88% 0.00 in 0 W/m2
04:24 53.9 °F 51.4 °F 29.89 in Calm     88% 0.00 in 0 W/m2
04:29 53.8 °F 51.3 °F 29.89 in Calm     88% 0.00 in 0 W/m2
04:34 53.7 °F 51.3 °F 29.89 in Calm     88.4% 0.00 in 0 W/m2
04:39 53.6 °F 51.3 °F 29.89 in Calm     89% 0.00 in 0 W/m2
04:44 53.5 °F 51.2 °F 29.89 in Calm     89% 0.00 in 0 W/m2
04:49 53.4 °F 51.1 °F 29.89 in Calm     89% 0.00 in 0 W/m2
04:54 53.4 °F 51.1 °F 29.89 in Calm     89% 0.00 in 0 W/m2
04:59 53.4 °F 51.1 °F 29.89 in Calm     89% 0.00 in 0 W/m2
05:04 53.3 °F 51 °F 29.88 in Calm     89% 0.00 in 0 W/m2
05:09 53.2 °F 50.9 °F 29.88 in Calm     89% 0.00 in 0 W/m2
05:14 53.1 °F 50.8 °F 29.88 in Calm     89% 0.00 in 0 W/m2
05:19 53.1 °F 50.7 °F 29.88 in Calm     89% 0.00 in 0 W/m2
05:24 52.9 °F 50.5 °F 29.88 in Calm     89% 0.00 in 0 W/m2
05:29 52.9 °F 50.5 °F 29.88 in Calm     89% 0.00 in 0 W/m2
05:34 52.9 °F 50.5 °F 29.88 in Calm     89% 0.00 in 0 W/m2
05:39 52.9 °F 50.5 °F 29.88 in Calm     89% 0.00 in 0 W/m2
05:44 52.9 °F 50.5 °F 29.88 in Calm     89% 0.00 in 0 W/m2
05:49 52.7 °F 50.7 °F 29.88 in Calm     89.8% 0.00 in 0 W/m2
05:54 52.7 °F 50.7 °F 29.87 in Calm     90% 0.00 in 0 W/m2
05:59 52.7 °F 50.5 °F 29.87 in Calm     89.4% 0.00 in 0 W/m2
06:04 52.6 °F 50.3 °F 29.87 in Calm     89% 0.00 in 0 W/m2
06:09 52.5 °F 50.3 °F 29.87 in Calm     89.4% 0.00 in 0 W/m2
06:14 52.4 °F 50.5 °F 29.87 in Calm     90% 0.00 in 0 W/m2
06:19 52.3 °F 50.4 °F 29.87 in Calm     90% 0.00 in 0 W/m2
06:24 52.3 °F 50.4 °F 29.87 in Calm     90% 0.00 in 0 W/m2
06:29 52.3 °F 50.4 °F 29.87 in Calm     90% 0.00 in 0 W/m2
06:34 52.3 °F 50.4 °F 29.87 in Calm     90% 0.00 in 0 W/m2
06:39 52.3 °F 50.4 °F 29.87 in Calm     90% 0.00 in 0 W/m2
06:44 52.3 °F 50.4 °F 29.86 in Calm     90% 0.00 in 0 W/m2
06:49 52.3 °F 50.3 °F 29.86 in Calm     90% 0.00 in 0 W/m2
06:54 52.2 °F 50.2 °F 29.86 in Calm     90% 0.00 in 0 W/m2
06:59 52.2 °F 50.2 °F 29.86 in Calm     90% 0.00 in 0 W/m2
07:04 52.2 °F 50.2 °F 29.86 in Calm     90% 0.00 in 7 W/m2
07:09 52.2 °F 50.4 °F 29.86 in Calm     90.4% 0.00 in 9 W/m2
07:14 52.3 °F 50.7 °F 29.86 in Calm     91% 0.00 in 12 W/m2
07:19 52.3 °F 50.7 °F 29.86 in Calm     91% 0.00 in 16 W/m2
07:24 52.3 °F 50.7 °F 29.86 in Calm     91% 0.00 in 19 W/m2
07:29 52.3 °F 50.7 °F 29.86 in Calm     91% 0.00 in 21 W/m2
07:34 52.5 °F 50.9 °F 29.86 in Calm     91% 0.00 in 25 W/m2
07:39 52.7 °F 51.1 °F 29.86 in Calm     91% 0.00 in 26 W/m2
07:44 53 °F 51.3 °F 29.86 in Calm     91% 0.00 in 30 W/m2
07:49 53.1 °F 51.4 °F 29.85 in Calm     91% 0.00 in 32 W/m2
07:54 53.3 °F 51.7 °F 29.85 in Calm     91% 0.00 in 35 W/m2
07:59 53.7 °F 51.8 °F 29.85 in Calm     90.2% 0.00 in 37 W/m2
08:04 54 °F 52 °F 29.85 in Calm     90% 0.00 in 40 W/m2
08:09 54.3 °F 52.3 °F 29.85 in Calm     90% 0.00 in 42 W/m2
08:14 54.8 °F 52.5 °F 29.85 in Calm     89.2% 0.00 in 47 W/m2
08:19 55.2 °F 52.8 °F 29.85 in Calm     88.4% 0.00 in 56 W/m2
08:24 55.4 °F 52.6 °F 29.85 in Calm   1 mph 87.4% 0.00 in 65 W/m2
08:29 56 °F 53.1 °F 29.85 in Calm     86.8% 0.00 in 76 W/m2
08:34 56.2 °F 52.9 °F 29.85 in Calm     85.8% 0.00 in 90 W/m2
08:39 56.1 °F 52.5 °F 29.85 in Calm     85% 0.00 in 104 W/m2
08:43 56.4 °F 52.8 °F 29.85 in Calm     85% 0.00 in 113 W/m2
08:49 56.9 °F 53.3 °F 29.85 in Calm     84.8% 0.00 in 127 W/m2
08:54 57.3 °F 53.3 °F 29.85 in Calm     83.8% 0.00 in 141 W/m2
08:59 57.9 °F 53.7 °F 29.84 in NW 0.4 mph 2 mph 83.2% 0.00 in 155 W/m2
09:04 58 °F 53.6 °F 29.84 in NW 0.5 mph 3 mph 82.6% 0.00 in 171 W/m2
09:09 58.5 °F 53.9 °F 29.84 in NW 0.8 mph 3 mph 82% 0.00 in 185 W/m2
09:14 59.7 °F 54.8 °F 29.85 in NW 0.2 mph 1 mph 81.2% 0.00 in 199 W/m2
09:19 60.7 °F 54.9 °F 29.84 in NW 0.2 mph 2 mph 78.8% 0.00 in 213 W/m2
09:24 61.1 °F 55 °F 29.85 in NW 0.4 mph 2 mph 78% 0.00 in 229 W/m2
09:29 61.9 °F 55.1 °F 29.85 in Calm     76.4% 0.00 in 243 W/m2
09:34 61.9 °F 54.6 °F 29.85 in NW 0.5 mph 2 mph 74.8% 0.00 in 257 W/m2
09:39 61.6 °F 54.3 °F 29.85 in WSW 2.8 mph 7 mph 74.8% 0.00 in 269 W/m2
09:44 61.4 °F 54.1 °F 29.84 in SW 3.1 mph 8 mph 74.8% 0.00 in 292 W/m2
09:49 61.7 °F 54.5 °F 29.84 in West 1.3 mph 4 mph 75% 0.00 in 295 W/m2
09:54 62.1 °F 54.9 °F 29.84 in West 2.4 mph 5 mph 75% 0.00 in 309 W/m2
09:59 62.3 °F 55.1 °F 29.84 in West 2.5 mph 7 mph 74.8% 0.00 in 323 W/m2
10:04 62.4 °F 55.3 °F 29.84 in West 3.1 mph 5 mph 75.4% 0.00 in 336 W/m2
10:09 62.7 °F 55.8 °F 29.84 in West 6.4 mph 10 mph 76% 0.00 in 350 W/m2
10:14 62.7 °F 55.7 °F 29.84 in WSW 3.7 mph 8 mph 75.6% 0.00 in 359 W/m2
10:19 62.5 °F 55.6 °F 29.84 in WSW 3.5 mph 7 mph 75.8% 0.00 in 362 W/m2
10:24 63.1 °F 56.4 °F 29.83 in WSW 3.2 mph 6 mph 76.6% 0.00 in 380 W/m2
10:29 63.7 °F 56.7 °F 29.83 in SW 2.1 mph 6 mph 75.6% 0.00 in 387 W/m2
10:34 64.2 °F 56.7 °F 29.83 in SW 0.8 mph 5 mph 74% 0.00 in 399 W/m2
10:39 64.7 °F 56.9 °F 29.83 in WSW 2.9 mph 6 mph 73.6% 0.00 in 413 W/m2
10:44 64.1 °F 56.6 °F 29.83 in SW 2.3 mph 7 mph 74% 0.00 in 427 W/m2
10:49 64.6 °F 56.8 °F 29.83 in SSW 4.2 mph 10 mph 73.4% 0.00 in 441 W/m2
10:54 65 °F 56.5 °F 29.83 in SSW 4 mph 9 mph 71.8% 0.00 in 446 W/m2
10:59 65.5 °F 55.8 °F 29.83 in SW 4.9 mph 8 mph 68.8% 0.00 in 452 W/m2
11:04 65.6 °F 55.6 °F 29.83 in SW 2.9 mph 8 mph 68% 0.00 in 454 W/m2
11:09 66 °F 56.4 °F 29.82 in SW 4.5 mph 9 mph 69% 0.00 in 432 W/m2
11:14 65.3 °F 56.7 °F 29.82 in SW 4.4 mph 9 mph 71.6% 0.00 in 441 W/m2
11:19 65.5 °F 57.5 °F 29.82 in WSW 6.1 mph 8 mph 73% 0.00 in 475 W/m2
11:24 65.9 °F 58.2 °F 29.81 in WSW 3.6 mph 7 mph 74% 0.00 in 478 W/m2
11:29 66.6 °F 59.1 °F 29.81 in WSW 3.3 mph 6 mph 74.8% 0.00 in 526 W/m2
11:34 67.5 °F 59.7 °F 29.81 in WSW 3.7 mph 7 mph 74% 0.00 in 594 W/m2
11:39 68 °F 60.1 °F 29.81 in WSW 3.3 mph 8 mph 73.6% 0.00 in 656 W/m2
11:44 68.9 °F 60.8 °F 29.80 in SSW 4 mph 10 mph 73% 0.00 in 622 W/m2
11:49 68.9 °F 60.4 °F 29.80 in SW 5.3 mph 10 mph 72% 0.00 in 615 W/m2
11:54 68.5 °F 60.1 °F 29.80 in SSW 7.5 mph 13 mph 72.2% 0.00 in 615 W/m2
11:59 68.3 °F 60 °F 29.80 in SSW 4.4 mph 10 mph 72.6% 0.00 in 656 W/m2
12:04 68.1 °F 59.7 °F 29.80 in SW 8.6 mph 17 mph 72% 0.00 in 663 W/m2
12:09 67 °F 59.2 °F 29.80 in SW 5.8 mph 17 mph 73.8% 0.00 in 346 W/m2
12:14 66.7 °F 59.2 °F 29.80 in SW 8.4 mph 16 mph 74.6% 0.00 in 308 W/m2
12:19 66.2 °F 59 °F 29.80 in WSW 6.6 mph 13 mph 75.4% 0.00 in 200 W/m2
12:24 66 °F 59.2 °F 29.79 in SSW 6.2 mph 13 mph 76% 0.00 in 195 W/m2
12:29 66 °F 59.2 °F 29.79 in SW 4.3 mph 13 mph 76% 0.00 in 167 W/m2
12:34 65.8 °F 59.3 °F 29.79 in SW 5.4 mph 16 mph 76.6% 0.00 in 162 W/m2
12:39 65.4 °F 58.8 °F 29.79 in SW 7 mph 16 mph 76.8% 0.00 in 250 W/m2
12:44 65 °F 58.6 °F 29.79 in SSW 6.1 mph 14 mph 77% 0.00 in 264 W/m2
12:49 65.1 °F 58.6 °F 29.79 in SSW 7 mph 14 mph 77% 0.00 in 230 W/m2
12:54 65.1 °F 58.6 °F 29.79 in SW 5.7 mph 13 mph 77% 0.00 in 165 W/m2
12:59 64.9 °F 58.8 °F 29.79 in SSW 7 mph 17 mph 78% 0.00 in 142 W/m2
13:04 64.9 °F 58.8 °F 29.79 in SW 4.6 mph 12 mph 78% 0.00 in 134 W/m2
13:09 64.9 °F 58.8 °F 29.79 in SW 3.7 mph 9 mph 78% 0.00 in 128 W/m2
13:14 64.7 °F 58.7 °F 29.79 in SSW 7.5 mph 15 mph 78.2% 0.00 in 160 W/m2
13:19 64.6 °F 58.8 °F 29.79 in SSW 6.4 mph 14 mph 79% 0.00 in 118 W/m2
13:24 64.6 °F 59 °F 29.79 in WSW 5.8 mph 10 mph 79.6% 0.00 in 91 W/m2
13:29 64.4 °F 59 °F 29.78 in WSW 5.9 mph 14 mph 80% 0.00 in 84 W/m2
13:34 64.2 °F 58.8 °F 29.78 in SW 6.4 mph 14 mph 80% 0.00 in 79 W/m2
13:39 64.1 °F 58.7 °F 29.78 in WSW 6.8 mph 12 mph 80% 0.00 in 72 W/m2
13:44 64 °F 58.9 °F 29.78 in SW 6.4 mph 13 mph 80.8% 0.00 in 95 W/m2
13:49 64 °F 59 °F 29.78 in WSW 6 mph 14 mph 81% 0.00 in 70 W/m2
13:54 63.7 °F 58.7 °F 29.78 in West 7.8 mph 15 mph 81.2% 0.00 in 60 W/m2
13:59 63.2 °F 58.6 °F 29.78 in SW 6.9 mph 16 mph 82% 0.00 in 93 W/m2
14:04 63.1 °F 58.8 °F 29.78 in South 5.1 mph 13 mph 83% 0.00 in 146 W/m2
14:09 63.1 °F 58.8 °F 29.78 in SW 7.2 mph 13 mph 83% 0.00 in 142 W/m2
14:14 63.1 °F 58.8 °F 29.78 in SW 5.2 mph 13 mph 83% 0.00 in 146 W/m2
14:19 63.1 °F 58.8 °F 29.77 in SW 5.7 mph 11 mph 83% 0.00 in 125 W/m2
14:24 63.2 °F 58.9 °F 29.77 in SSW 4.4 mph 10 mph 83% 0.00 in 271 W/m2
14:29 63.3 °F 59 °F 29.77 in SSW 5.4 mph 12 mph 83% 0.00 in 362 W/m2
14:34 63.6 °F 59.3 °F 29.77 in SSW 5.4 mph 14 mph 83% 0.00 in 390 W/m2
14:39 63.8 °F 59.1 °F 29.76 in SW 3.6 mph 14 mph 82% 0.00 in 396 W/m2
14:44 64.1 °F 59.4 °F 29.76 in SW 6.3 mph 12 mph 81.8% 0.00 in 181 W/m2
14:49 64.1 °F 59.1 °F 29.76 in WSW 5.2 mph 13 mph 81% 0.00 in 165 W/m2
14:54 64 °F 59 °F 29.76 in WSW 5.8 mph 11 mph 81% 0.00 in 105 W/m2
14:59 64 °F 59 °F 29.76 in SW 6.2 mph 11 mph 81% 0.00 in 95 W/m2
15:04 63.9 °F 58.8 °F 29.76 in SW 6.3 mph 14 mph 81% 0.00 in 81 W/m2
15:09 63.7 °F 58.6 °F 29.76 in SW 5.7 mph 14 mph 81% 0.00 in 98 W/m2
15:14 63.7 °F 59 °F 29.76 in WSW 5.3 mph 7 mph 82% 0.00 in 95 W/m2
15:19 63.7 °F 59 °F 29.75 in WSW 4 mph 12 mph 82% 0.00 in 53 W/m2
15:24 63.5 °F 58.8 °F 29.75 in SW 7.8 mph 12 mph 82% 0.00 in 67 W/m2
15:29 63.2 °F 58.7 °F 29.75 in SW 6.7 mph 14 mph 82.4% 0.00 in 98 W/m2
15:34 63.2 °F 58.9 °F 29.75 in SW 6.4 mph 11 mph 83% 0.00 in 123 W/m2
15:39 63.3 °F 59 °F 29.75 in West 6.6 mph 11 mph 83% 0.00 in 86 W/m2
15:44 63.3 °F 58.8 °F 29.75 in WSW 7.4 mph 14 mph 82.4% 0.00 in 63 W/m2
15:49 63.3 °F 58.6 °F 29.75 in WSW 7.4 mph 11 mph 82% 0.00 in 74 W/m2
15:54 63.3 °F 58.6 °F 29.74 in WSW 3.3 mph 11 mph 82% 0.00 in 53 W/m2
15:59 63.3 °F 58.6 °F 29.74 in WSW 3.8 mph 6 mph 82% 0.00 in 35 W/m2
16:04 63.3 °F 58.6 °F 29.74 in West 3.3 mph 9 mph 82% 0.00 in 30 W/m2
16:09 63.3 °F 58.6 °F 29.73 in West 2.9 mph 6 mph 82% 0.00 in 30 W/m2
16:13 63.3 °F 58.9 °F 29.73 in WSW 2.7 mph 6 mph 82.8% 0.00 in 69 W/m2
16:19 63.3 °F 59 °F 29.73 in West 3.3 mph 5 mph 83% 0.00 in 79 W/m2
16:24 63.3 °F 59 °F 29.73 in WSW 5.4 mph 7 mph 83% 0.00 in 56 W/m2
16:29 63.3 °F 59 °F 29.73 in WSW 5.5 mph 9 mph 83% 0.00 in 32 W/m2
16:34 63.2 °F 58.9 °F 29.72 in SW 3.6 mph 8 mph 83% 0.00 in 35 W/m2
16:39 63.3 °F 59 °F 29.72 in SW 4.4 mph 7 mph 83% 0.00 in 46 W/m2
16:44 63.2 °F 58.9 °F 29.72 in SW 5.1 mph 9 mph 83% 0.00 in 21 W/m2
16:49 63.1 °F 58.8 °F 29.72 in WSW 2.5 mph 8 mph 83% 0.00 in 25 W/m2
16:54 63.1 °F 58.8 °F 29.72 in WSW 2.1 mph 6 mph 83% 0.00 in 14 W/m2
16:59 63.1 °F 58.8 °F 29.72 in West 2.4 mph 5 mph 83% 0.00 in 19 W/m2
17:04 63.1 °F 58.8 °F 29.71 in West 2.7 mph 5 mph 83% 0.00 in 21 W/m2
17:09 63 °F 58.6 °F 29.71 in West 4.4 mph 8 mph 83% 0.00 in 25 W/m2
17:14 63 °F 58.9 °F 29.71 in West 3.3 mph 6 mph 83.8% 0.00 in 18 W/m2
17:19 63 °F 59 °F 29.71 in West 3.3 mph 6 mph 84% 0.00 in 14 W/m2
17:24 63 °F 59 °F 29.71 in WSW 3 mph 6 mph 84% 0.00 in 9 W/m2
17:29 62.8 °F 58.8 °F 29.71 in WNW 5.3 mph 8 mph 84% 0.00 in 7 W/m2
17:34 62.3 °F 58.4 °F 29.71 in WNW 4 mph 7 mph 84% 0.00 in 7 W/m2
17:39 62.2 °F 58.6 °F 29.71 in WSW 2.6 mph 5 mph 85% 0.00 in 12 W/m2
17:44 62.1 °F 58.5 °F 29.71 in West 3.3 mph 5 mph 85% 0.00 in 11 W/m2
17:49 62.1 °F 58.5 °F 29.71 in NW 4.6 mph 9 mph 85% 0.00 in 5 W/m2
17:54 61.9 °F 58.3 °F 29.71 in WNW 5.1 mph 9 mph 85% 0.00 in 9 W/m2
17:59 61.5 °F 57.9 °F 29.71 in WNW 2.9 mph 8 mph 85.2% 0.00 in 9 W/m2
18:04 61.3 °F 57.9 °F 29.71 in WNW 4.1 mph 7 mph 86% 0.00 in 7 W/m2
18:08 61.2 °F 57.7 °F 29.71 in WNW 2.7 mph 7 mph 86% 0.00 in 14 W/m2
18:14 61.2 °F 58.1 °F 29.71 in WNW 2 mph 4 mph 87% 0.00 in 14 W/m2
18:19 61 °F 57.9 °F 29.71 in WNW 1.7 mph 4 mph 87% 0.00 in 9 W/m2
18:24 60.9 °F 58.2 °F 29.71 in WNW 1.3 mph 3 mph 88% 0.00 in 5 W/m2
18:29 60.8 °F 58.1 °F 29.70 in WNW 1.2 mph 3 mph 88% 0.00 in 0 W/m2
18:34 60.6 °F 57.9 °F 29.70 in WNW 0.4 mph 3 mph 88% 0.00 in 7 W/m2
18:39 60.6 °F 57.9 °F 29.70 in WNW 1.7 mph 3 mph 88% 0.00 in 5 W/m2
18:44 60.5 °F 58.1 °F 29.70 in Calm   2 mph 88.6% 0.00 in 0 W/m2
18:49 60.6 °F 58.3 °F 29.70 in WNW 0.2 mph 2 mph 89% 0.00 in 0 W/m2
18:54 60.6 °F 58.3 °F 29.70 in WNW 0.2 mph 2 mph 89% 0.00 in 0 W/m2
18:59 60.4 °F 58.1 °F 29.70 in WNW 0.6 mph 2 mph 89% 0.00 in 0 W/m2
19:04 60.4 °F 58.1 °F 29.70 in WNW 1 mph 3 mph 89% 0.00 in 0 W/m2
19:09 60.3 °F 58.2 °F 29.70 in WNW 1.3 mph 2 mph 89.6% 0.00 in 0 W/m2
19:14 60.3 °F 58.3 °F 29.70 in Calm   2 mph 90% 0.00 in 0 W/m2
19:19 60.3 °F 58.3 °F 29.70 in Calm     90% 0.00 in 0 W/m2
19:24 60.3 °F 58.3 °F 29.70 in Calm     90% 0.00 in 0 W/m2
19:29 60.3 °F 58.3 °F 29.70 in Calm     90% 0.00 in 0 W/m2
19:34 60.3 °F 58.3 °F 29.70 in Calm     90% 0.00 in 0 W/m2
19:39 60.3 °F 58.3 °F 29.70 in Calm   1 mph 90% 0.00 in 0 W/m2
19:44 60.3 °F 58.3 °F 29.70 in Calm   1 mph 90% 0.00 in 0 W/m2
19:49 60.3 °F 58.3 °F 29.70 in WNW 0.8 mph 4 mph 90% 0.00 in 0 W/m2
19:54 60.2 °F 58.2 °F 29.69 in WNW 0.8 mph 4 mph 90% 0.00 in 0 W/m2
19:59 60.3 °F 58.4 °F 29.69 in WNW 0.4 mph 3 mph 90.8% 0.00 in 0 W/m2
20:04 60.2 °F 58.4 °F 29.69 in WNW 1.8 mph 4 mph 91% 0.00 in 0 W/m2
20:09 60.1 °F 58.3 °F 29.70 in WNW 0.9 mph 3 mph 91% 0.00 in 0 W/m2
20:14 60.3 °F 58.5 °F 29.69 in WNW 1.2 mph 3 mph 91% 0.00 in 0 W/m2
20:19 60.3 °F 58.5 °F 29.69 in WNW 0.4 mph 3 mph 91% 0.00 in 0 W/m2
20:24 60.3 °F 58.5 °F 29.70 in WNW 1.8 mph 4 mph 91% 0.00 in 0 W/m2
20:28 60.3 °F 58.5 °F 29.69 in WNW 0.2 mph 2 mph 91% 0.00 in 0 W/m2
20:34 60.3 °F 58.5 °F 29.69 in WNW 0.2 mph 2 mph 91% 0.01 in 0 W/m2
20:39 60.3 °F 58.5 °F 29.69 in WNW 0.2 mph 2 mph 91% 0.01 in 0 W/m2
20:44 60.2 °F 58.4 °F 29.69 in WNW 0.4 mph 1 mph 91% 0.01 in 0 W/m2
20:49 60.3 °F 58.5 °F 29.69 in Calm   1 mph 91% 0.01 in 0 W/m2
20:54 60.3 °F 58.5 °F 29.69 in Calm   1 mph 91% 0.01 in 0 W/m2
20:59 60.3 °F 58.5 °F 29.69 in WNW 0.2 mph 1 mph 91% 0.01 in 0 W/m2
21:04 60.1 °F 58.3 °F 29.69 in WNW 1.6 mph 3 mph 91% 0.01 in 0 W/m2
21:09 60.1 °F 58.3 °F 29.69 in WNW 0.4 mph 3 mph 91% 0.01 in 0 W/m2
21:14 60.1 °F 58.3 °F 29.69 in WNW 0.6 mph 2 mph 91% 0.01 in 0 W/m2
21:19 60.1 °F 58.3 °F 29.69 in WNW 0.4 mph 2 mph 91% 0.01 in 0 W/m2
21:24 60.1 °F 58.4 °F 29.69 in Calm   1 mph 91.4% 0.01 in 0 W/m2
21:29 60 °F 58.5 °F 29.68 in Calm     92% 0.01 in 0 W/m2
21:34 60 °F 58.2 °F 29.68 in Calm     91.3% 0.00 in 0 W/m2
21:39 59.9 °F 58.4 °F 29.68 in Calm     91.8% 0.00 in 0 W/m2
21:44 59.8 °F 58.4 °F 29.68 in Calm     92% 0.00 in 0 W/m2
21:49 59.7 °F 58.3 °F 29.68 in Calm   2 mph 92% 0.00 in 0 W/m2
21:54 59.7 °F 58.3 °F 29.68 in Calm     92% 0.00 in 0 W/m2
22:04 59.5 °F 58.1 °F 29.67 in WNW 0.2 mph 2 mph 92% 0.00 in 0 W/m2
22:09 59.5 °F 58.1 °F 29.67 in Calm     92% 0.00 in 0 W/m2
22:14 59.5 °F 58.1 °F 29.67 in Calm     92% 0.00 in 0 W/m2
22:19 59.4 °F 57.9 °F 29.66 in Calm     92% 0.00 in 0 W/m2
22:24 59.4 °F 57.9 °F 29.66 in Calm     92% 0.00 in 0 W/m2
22:29 59.4 °F 57.9 °F 29.66 in Calm     92% 0.00 in 0 W/m2
22:34 59.2 °F 57.7 °F 29.66 in WNW 0.8 mph 2 mph 92% 0.00 in 0 W/m2
22:39 59.2 °F 57.7 °F 29.66 in WNW 0.4 mph 3 mph 92% 0.00 in 0 W/m2
22:44 59.2 °F 57.7 °F 29.66 in WNW 0.6 mph 3 mph 92% 0.00 in 0 W/m2
22:49 59.2 °F 57.7 °F 29.66 in WNW 1.3 mph 4 mph 92% 0.00 in 0 W/m2
22:54 59.2 °F 57.7 °F 29.66 in WNW 1.6 mph 3 mph 92% 0.00 in 0 W/m2
22:59 59.2 °F 57.7 °F 29.66 in WNW 1.7 mph 5 mph 92% 0.00 in 0 W/m2
23:04 59.3 °F 57.8 °F 29.66 in WNW 0.4 mph 3 mph 92% 0.00 in 0 W/m2
23:09 59.4 °F 57.9 °F 29.65 in WNW 0.2 mph 3 mph 92% 0.00 in 0 W/m2
23:14 59.4 °F 57.9 °F 29.65 in WNW 0.4 mph 2 mph 92% 0.00 in 0 W/m2
23:19 59.4 °F 57.9 °F 29.65 in WNW 0.7 mph 3 mph 92% 0.00 in 0 W/m2
23:24 59.4 °F 57.9 °F 29.65 in WNW 0.6 mph 2 mph 92% 0.00 in 0 W/m2
23:29 59.4 °F 57.9 °F 29.65 in WNW 0.6 mph 3 mph 92% 0.00 in 0 W/m2
23:34 59.4 °F 57.9 °F 29.65 in Calm   2 mph 92% 0.00 in 0 W/m2
23:39 59.4 °F 57.9 °F 29.65 in WNW 1.2 mph 3 mph 92% 0.00 in 0 W/m2
23:44 59.4 °F 58 °F 29.65 in WNW 0.5 mph 3 mph 92% 0.00 in 0 W/m2
23:49 59.5 °F 58.1 °F 29.64 in WNW 0.8 mph 3 mph 92% 0.00 in 0 W/m2
23:54 59.5 °F 58.1 °F 29.64 in WNW 0.4 mph 3 mph 92% 0.00 in 0 W/m2
23:59 59.5 °F 58.1 °F 29.64 in WNW 0.5 mph 3 mph 92% 0.00 in 0 W/m2
Bath Spa Weather
Compliments of Weather Underground - 2 mb